Time;durP1;ratioP1;P1;durP2;ratioP2;P2;SDS_P1;SDS_P2;PMS_P1;PMS_P2;Temp;Humidity;BMP_temperature;BMP_pressure;BME280_temperature;BME280_humidity;BME280_pressure;Samples;Min_cycle;Max_cycle;Signal;HPM_P1;HPM_P2
2022/06/12 00:00:58;;;;;;;2.72;2.17;;;21.80;65.40;;;;;;4996498;28;20227;-69
2022/06/12 00:03:27;;;;;;;2.75;2.20;;;21.80;65.40;;;;;;5013001;28;20192;-69
2022/06/12 00:05:56;;;;;;;2.83;2.33;;;21.80;65.40;;;;;;4997416;28;20213;-69
2022/06/12 00:08:24;;;;;;;3.13;2.30;;;21.80;66.10;;;;;;4996447;28;20235;-69
2022/06/12 00:10:54;;;;;;;2.50;2.28;;;21.80;65.40;;;;;;4998106;28;20179;-69
2022/06/12 00:13:28;;;;;;;3.85;2.70;;;21.80;65.40;;;;;;4996733;28;20186;-69
2022/06/12 00:15:55;;;;;;;2.60;2.40;;;21.80;65.40;;;;;;4997592;28;20185;-69
2022/06/12 00:18:21;;;;;;;2.70;2.15;;;21.80;65.40;;;;;;4995576;28;20699;-68
2022/06/12 00:20:47;;;;;;;2.70;2.33;;;21.80;65.30;;;;;;4980691;28;20195;-69
2022/06/12 00:23:16;;;;;;;3.25;2.20;;;21.80;65.40;;;;;;5014414;28;20180;-69
2022/06/12 00:25:43;;;;;;;4.18;2.25;;;21.80;65.40;;;;;;5015746;28;20185;-69
2022/06/12 00:28:09;;;;;;;2.88;2.20;;;21.80;65.30;;;;;;5032464;28;20204;-69
2022/06/12 00:30:35;;;;;;;2.30;2.10;;;21.80;65.30;;;;;;5015946;28;20235;-69
2022/06/12 00:33:01;;;;;;;1.85;1.70;;;21.80;65.40;;;;;;5000634;28;20559;-69
2022/06/12 00:35:35;;;;;;;2.50;2.30;;;21.80;65.30;;;;;;4997729;28;20177;-70
2022/06/12 00:38:04;;;;;;;3.03;2.20;;;21.80;65.30;;;;;;4995885;28;20201;-69
2022/06/12 00:40:30;;;;;;;2.72;2.53;;;21.80;65.30;;;;;;4996185;28;20212;-69
2022/06/12 00:43:02;;;;;;;2.42;2.20;;;21.80;65.40;;;;;;4995921;28;20279;-69
2022/06/12 00:45:49;;;;;;;2.47;2.20;;;21.80;65.30;;;;;;4994031;28;20248;-69
2022/06/12 00:48:19;;;;;;;3.53;2.30;;;21.80;65.30;;;;;;4994295;28;20208;-69
2022/06/12 00:51:11;;;;;;;3.63;2.30;;;21.80;65.30;;;;;;4978658;28;20727;-69
2022/06/12 00:53:49;;;;;;;2.20;2.00;;;21.70;65.30;;;;;;4994974;28;20283;-69
2022/06/12 00:56:31;;;;;;;2.10;2.00;;;21.70;65.20;;;;;;4994604;28;20183;-68
2022/06/12 00:59:14;;;;;;;3.17;2.15;;;21.70;65.20;;;;;;4995548;28;20220;-69
2022/06/12 01:01:46;;;;;;;2.35;2.15;;;21.70;65.20;;;;;;4995678;28;20224;-69
2022/06/12 01:07:08;;;;;;;2.47;2.13;;;21.70;65.20;;;;;;4995081;28;20189;-69
2022/06/12 01:09:40;;;;;;;2.10;1.90;;;21.80;66.10;;;;;;4996335;28;20216;-69
2022/06/12 01:12:13;;;;;;;2.75;2.00;;;21.80;65.40;;;;;;5000395;28;20188;-69
2022/06/12 01:14:47;;;;;;;2.30;2.10;;;21.80;65.30;;;;;;5002089;28;20211;-69
2022/06/12 01:17:14;;;;;;;2.33;2.13;;;21.80;65.30;;;;;;5001999;28;20187;-69
2022/06/12 01:19:46;;;;;;;2.70;2.50;;;21.80;65.20;;;;;;5002266;28;20247;-69
2022/06/12 01:22:53;;;;;;;2.80;2.00;;;21.70;65.20;;;;;;5002162;28;20185;-69
2022/06/12 01:25:47;;;;;;;2.58;2.38;;;21.70;65.20;;;;;;4984803;28;20200;-69
2022/06/12 01:28:44;;;;;;;2.38;1.95;;;21.70;65.20;;;;;;5001901;28;20258;-69
2022/06/12 01:32:01;;;;;;;3.30;2.50;;;21.70;65.20;;;;;;5002666;28;20220;-69
2022/06/12 01:35:30;;;;;;;3.08;2.50;;;21.70;65.10;;;;;;4984928;28;20208;-69
2022/06/12 01:38:15;;;;;;;2.90;2.20;;;21.70;65.20;;;;;;4961228;28;20214;-69
2022/06/12 01:41:39;;;;;;;2.10;2.00;;;21.70;65.10;;;;;;4946405;28;20187;-69
2022/06/12 01:44:44;;;;;;;2.72;2.53;;;21.70;65.10;;;;;;4965183;28;20224;-69
2022/06/12 01:47:38;;;;;;;3.17;2.35;;;21.70;65.20;;;;;;5002968;28;20191;-69
2022/06/12 01:50:24;;;;;;;2.05;1.88;;;21.70;65.20;;;;;;5002206;28;20209;-69
2022/06/12 01:53:11;;;;;;;2.47;2.28;;;21.70;65.10;;;;;;5003531;28;20177;-69
2022/06/12 01:55:45;;;;;;;2.60;2.40;;;21.70;65.10;;;;;;4985635;28;20189;-69
2022/06/12 01:58:45;;;;;;;2.50;2.30;;;21.70;65.10;;;;;;5001387;28;20207;-69
2022/06/12 02:01:25;;;;;;;2.10;1.92;;;21.70;65.20;;;;;;5012812;28;20188;-69
2022/06/12 02:03:57;;;;;;;2.30;2.10;;;21.70;65.20;;;;;;5038467;28;20191;-69
2022/06/12 02:06:35;;;;;;;2.33;2.13;;;21.70;65.10;;;;;;5018704;28;20261;-68
2022/06/12 02:09:20;;;;;;;2.53;2.33;;;21.70;65.10;;;;;;5016433;28;20208;-69
2022/06/12 02:15:02;;;;;;;2.53;2.22;;;21.70;65.10;;;;;;5002863;28;20176;-69
2022/06/12 02:17:37;;;;;;;2.40;2.20;;;21.70;65.20;;;;;;5000467;28;20188;-69
2022/06/12 02:20:09;;;;;;;2.30;2.10;;;21.70;65.10;;;;;;5001954;28;20189;-69
2022/06/12 02:22:39;;;;;;;2.03;1.83;;;21.60;65.00;;;;;;4984592;28;20641;-69
2022/06/12 02:25:22;;;;;;;2.50;2.30;;;21.70;65.10;;;;;;4998576;28;20247;-69
2022/06/12 02:28:01;;;;;;;2.40;2.20;;;21.60;65.00;;;;;;4982973;28;20268;-68
2022/06/12 02:30:36;;;;;;;2.50;2.25;;;21.70;65.10;;;;;;4998828;28;20255;-69
2022/06/12 02:33:30;;;;;;;2.72;2.53;;;21.70;65.10;;;;;;5000566;28;20200;-70
2022/06/12 02:36:18;;;;;;;2.40;2.20;;;21.70;65.10;;;;;;4988601;28;20205;-69
2022/06/12 02:38:56;;;;;;;2.17;2.08;;;21.60;64.90;;;;;;4998608;28;20215;-69
2022/06/12 02:41:58;;;;;;;2.55;2.35;;;21.60;64.90;;;;;;5000073;28;20180;-69
2022/06/12 02:44:36;;;;;;;3.08;2.72;;;21.60;64.90;;;;;;4998820;28;20263;-69
2022/06/12 02:47:12;;;;;;;2.90;2.70;;;21.70;65.10;;;;;;4998025;28;20268;-69
2022/06/12 02:49:43;;;;;;;2.10;2.00;;;21.70;65.10;;;;;;4998257;28;20235;-69
2022/06/12 02:52:39;;;;;;;2.50;2.30;;;21.60;65.00;;;;;;4998741;28;20185;-69
2022/06/12 02:55:29;;;;;;;2.25;2.05;;;21.60;65.00;;;;;;4982104;28;20181;-69
2022/06/12 02:58:04;;;;;;;1.92;1.83;;;21.60;64.90;;;;;;4981360;28;20204;-69
2022/06/12 03:00:46;;;;;;;2.08;1.98;;;21.70;65.00;;;;;;4998469;28;20210;-69
2022/06/12 03:03:35;;;;;;;2.55;2.35;;;21.70;65.00;;;;;;4982863;28;20212;-69
2022/06/12 03:06:02;;;;;;;2.13;2.00;;;21.70;65.00;;;;;;4982318;28;20300;-69
2022/06/12 03:08:42;;;;;;;2.20;2.00;;;21.70;65.00;;;;;;4981957;28;20209;-70
2022/06/12 03:11:25;;;;;;;2.17;2.00;;;21.60;64.90;;;;;;4998250;28;20191;-69
2022/06/12 03:13:54;;;;;;;2.22;2.03;;;21.60;64.90;;;;;;4998945;28;20161;-69
2022/06/12 03:16:31;;;;;;;2.17;2.08;;;21.70;65.80;;;;;;4998515;28;20192;-69
2022/06/12 03:19:11;;;;;;;1.83;1.73;;;21.60;64.90;;;;;;4981896;28;20216;-69
2022/06/12 03:22:14;;;;;;;2.28;2.10;;;21.60;64.90;;;;;;4998450;28;20211;-69
2022/06/12 03:25:01;;;;;;;2.03;1.92;;;21.60;64.90;;;;;;4980384;28;20212;-69
2022/06/12 03:27:53;;;;;;;2.15;2.00;;;21.60;65.70;;;;;;4979072;28;20264;-69
2022/06/12 03:30:49;;;;;;;2.30;2.10;;;21.60;64.90;;;;;;4998733;28;20296;-69
2022/06/12 03:34:16;;;;;;;2.38;2.17;;;21.60;64.90;;;;;;5014576;28;20574;-69
2022/06/12 03:36:55;;;;;;;1.95;1.85;;;21.60;64.90;;;;;;4973812;28;20204;-69
2022/06/12 03:39:47;;;;;;;1.95;1.85;;;21.60;64.90;;;;;;4982597;28;20215;-69
2022/06/12 03:42:32;;;;;;;2.00;1.90;;;21.60;64.80;;;;;;4998373;28;20576;-69
2022/06/12 03:45:15;;;;;;;2.35;2.20;;;21.60;64.80;;;;;;4998775;28;20173;-69
2022/06/12 03:48:26;;;;;;;3.42;2.10;;;21.60;64.80;;;;;;5001538;28;20212;-70
2022/06/12 03:51:41;;;;;;;2.40;2.20;;;21.60;64.80;;;;;;4957012;29;20773;-69
2022/06/12 03:54:41;;;;;;;2.00;1.90;;;21.60;64.80;;;;;;4997418;28;20173;-69
2022/06/12 04:00:27;;;;;;;1.80;1.70;;;21.60;64.80;;;;;;4997687;28;20188;-69
2022/06/12 04:03:08;;;;;;;2.15;1.95;;;21.60;64.80;;;;;;4981162;28;20217;-69
2022/06/12 04:06:05;;;;;;;2.15;1.95;;;21.60;64.80;;;;;;4997436;28;20193;-69
2022/06/12 04:08:51;;;;;;;2.22;2.03;;;21.60;64.80;;;;;;4996930;28;20201;-69
2022/06/12 04:11:21;;;;;;;2.53;2.33;;;21.60;64.80;;;;;;4960560;28;20189;-69
2022/06/12 04:13:50;;;;;;;1.92;1.83;;;21.50;64.70;;;;;;4977530;28;20185;-69
2022/06/12 04:16:48;;;;;;;2.08;1.98;;;21.60;64.80;;;;;;4973090;28;20204;-69
2022/06/12 04:19:24;;;;;;;1.88;1.77;;;21.50;64.80;;;;;;4996263;28;20239;-69
2022/06/12 04:22:14;;;;;;;1.80;1.70;;;21.60;64.80;;;;;;4980051;28;20188;-69
2022/06/12 04:24:47;;;;;;;2.65;2.00;;;21.60;64.80;;;;;;4995871;28;20196;-69
2022/06/12 04:27:36;;;;;;;2.40;2.17;;;21.60;64.80;;;;;;4995857;28;20196;-69
2022/06/12 04:30:34;;;;;;;1.80;1.70;;;21.60;64.80;;;;;;4996663;28;20311;-69
2022/06/12 04:33:41;;;;;;;1.90;1.80;;;21.50;64.70;;;;;;4992181;28;20211;-68
2022/06/12 04:36:08;;;;;;;2.15;1.95;;;21.50;64.70;;;;;;4997661;28;20257;-69
2022/06/12 04:38:36;;;;;;;2.15;1.83;;;21.50;64.70;;;;;;4979253;28;20203;-69
2022/06/12 04:41:03;;;;;;;1.90;1.80;;;21.50;64.70;;;;;;4997134;28;20553;-69
2022/06/12 04:43:30;;;;;;;2.03;1.92;;;21.50;64.70;;;;;;4979588;28;20212;-69
2022/06/12 04:45:57;;;;;;;2.05;1.90;;;21.60;65.70;;;;;;4994467;28;20177;-69
2022/06/12 04:48:45;;;;;;;2.25;2.05;;;21.60;64.80;;;;;;4977165;28;20208;-69
2022/06/12 04:51:12;;;;;;;1.90;1.80;;;21.50;64.80;;;;;;4992189;28;20283;-68
2022/06/12 04:53:42;;;;;;;1.95;1.70;;;21.50;64.80;;;;;;4993635;28;20208;-68
2022/06/12 04:56:09;;;;;;;2.10;1.90;;;21.60;64.90;;;;;;4977265;28;20215;-69
2022/06/12 04:58:38;;;;;;;1.98;1.77;;;21.50;64.80;;;;;;4992936;28;20205;-68
2022/06/12 05:01:05;;;;;;;2.05;1.88;;;21.50;64.80;;;;;;4992931;28;20235;-69
2022/06/12 05:03:32;;;;;;;1.95;1.83;;;21.50;64.80;;;;;;4993394;28;20224;-69
2022/06/12 05:05:58;;;;;;;1.75;1.65;;;21.50;64.90;;;;;;4993863;28;20228;-68
2022/06/12 05:08:24;;;;;;;1.90;1.80;;;21.50;64.80;;;;;;4992630;28;20200;-69
2022/06/12 05:10:50;;;;;;;1.73;1.63;;;21.50;64.90;;;;;;4976848;28;20216;-69
2022/06/12 05:13:16;;;;;;;2.00;1.90;;;21.60;64.90;;;;;;4976943;28;20280;-69
2022/06/12 05:15:44;;;;;;;1.90;1.80;;;21.50;64.90;;;;;;4977357;28;20189;-69
2022/06/12 05:18:14;;;;;;;2.20;2.03;;;21.50;64.90;;;;;;4993054;28;20207;-69
2022/06/12 05:20:42;;;;;;;2.15;2.05;;;21.50;64.90;;;;;;4994480;28;20546;-69
2022/06/12 05:23:08;;;;;;;1.98;1.88;;;21.50;64.90;;;;;;4993235;28;20275;-68
2022/06/12 05:25:36;;;;;;;2.10;2.00;;;21.50;64.90;;;;;;4976406;28;20575;-69
2022/06/12 05:28:03;;;;;;;2.28;2.17;;;21.50;64.90;;;;;;4992971;28;20220;-69
2022/06/12 05:30:33;;;;;;;2.28;2.08;;;21.50;64.90;;;;;;4976793;28;20252;-69
2022/06/12 05:33:01;;;;;;;2.30;2.10;;;21.50;64.90;;;;;;4993147;28;20656;-68
2022/06/12 05:35:30;;;;;;;2.33;2.13;;;21.50;64.90;;;;;;4992977;28;20177;-69
2022/06/12 05:37:58;;;;;;;1.90;1.80;;;21.60;65.00;;;;;;4992299;28;20205;-69
2022/06/12 05:40:31;;;;;;;1.90;1.80;;;21.60;65.00;;;;;;4992653;28;20192;-69
2022/06/12 05:42:56;;;;;;;2.00;1.90;;;21.50;64.90;;;;;;4992845;28;20184;-69
2022/06/12 05:45:27;;;;;;;2.03;1.92;;;21.60;64.90;;;;;;4976507;28;20181;-69
2022/06/12 05:48:03;;;;;;;1.77;1.67;;;21.60;65.00;;;;;;4975749;28;20252;-69
2022/06/12 05:50:34;;;;;;;2.08;1.98;;;21.60;65.00;;;;;;4992215;28;20227;-69
2022/06/12 05:53:00;;;;;;;1.98;1.88;;;21.60;65.00;;;;;;4975717;28;20213;-68
2022/06/12 05:55:27;;;;;;;1.85;1.75;;;21.60;65.00;;;;;;4992392;28;20185;-68
2022/06/12 05:57:53;;;;;;;1.83;1.73;;;21.60;65.00;;;;;;4980922;28;20189;-69
2022/06/12 06:00:28;;;;;;;2.10;2.00;;;21.60;65.00;;;;;;4993488;28;20283;-69
2022/06/12 06:02:54;;;;;;;1.90;1.80;;;21.60;65.00;;;;;;4996287;28;20562;-69
2022/06/12 06:05:20;;;;;;;2.25;1.80;;;21.60;65.80;;;;;;4994975;28;20195;-69
2022/06/12 06:07:46;;;;;;;1.80;1.70;;;21.60;65.00;;;;;;4970522;28;20197;-69
2022/06/12 06:10:18;;;;;;;2.20;2.00;;;21.70;65.20;;;;;;4977354;28;20245;-69
2022/06/12 06:12:44;;;;;;;2.15;2.05;;;21.60;65.10;;;;;;4996228;28;20192;-69
2022/06/12 06:15:11;;;;;;;2.00;1.90;;;21.70;65.20;;;;;;4995420;28;20610;-69
2022/06/12 06:17:37;;;;;;;1.98;1.88;;;21.70;65.30;;;;;;4995775;28;20256;-68
2022/06/12 06:20:05;;;;;;;1.67;1.58;;;21.70;65.20;;;;;;4995322;28;20208;-70
2022/06/12 06:22:32;;;;;;;2.15;2.00;;;21.60;65.20;;;;;;4992429;28;20578;-69
2022/06/12 06:24:58;;;;;;;2.13;2.03;;;21.70;65.20;;;;;;4983448;28;20196;-69
2022/06/12 06:27:24;;;;;;;1.98;1.85;;;21.70;65.30;;;;;;5002957;28;20663;-69
2022/06/12 06:29:50;;;;;;;1.95;1.83;;;21.70;65.20;;;;;;4995787;28;20208;-69
2022/06/12 06:32:16;;;;;;;2.10;2.00;;;21.70;65.10;;;;;;5012087;28;20195;-69
2022/06/12 06:34:42;;;;;;;2.00;1.90;;;21.70;65.20;;;;;;4979300;28;20247;-69
2022/06/12 06:37:11;;;;;;;2.20;2.05;;;21.60;65.10;;;;;;4994564;28;20185;-69
2022/06/12 06:39:38;;;;;;;2.10;2.00;;;21.60;65.20;;;;;;4994716;28;20212;-69
2022/06/12 06:42:06;;;;;;;1.70;1.60;;;21.70;65.30;;;;;;4995081;28;20185;-69
2022/06/12 06:47:17;;;;;;;2.42;1.80;;;21.70;65.30;;;;;;4995209;28;20284;-69
2022/06/12 06:49:43;;;;;;;1.95;1.70;;;21.70;65.30;;;;;;5011094;28;20311;-69
2022/06/12 06:52:09;;;;;;;1.88;1.77;;;21.70;65.40;;;;;;4994535;28;20279;-69
2022/06/12 06:54:35;;;;;;;2.78;1.70;;;21.70;65.40;;;;;;4995988;28;20181;-69
2022/06/12 06:57:01;;;;;;;2.03;1.83;;;21.70;65.30;;;;;;5010031;28;20192;-69
2022/06/12 06:59:27;;;;;;;1.80;1.70;;;21.70;65.40;;;;;;4994361;28;20212;-69
2022/06/12 07:01:53;;;;;;;2.47;1.60;;;21.70;65.40;;;;;;4994550;28;20703;-69
2022/06/12 07:04:19;;;;;;;2.25;1.95;;;21.70;65.30;;;;;;4978506;28;20192;-69
2022/06/12 07:06:45;;;;;;;3.00;2.00;;;21.70;65.40;;;;;;4994056;28;20192;-68
2022/06/12 07:09:12;;;;;;;2.58;1.85;;;21.70;65.50;;;;;;4993789;28;20208;-69
2022/06/12 07:11:38;;;;;;;2.28;1.85;;;21.70;65.40;;;;;;4994281;28;20187;-69
2022/06/12 07:14:04;;;;;;;2.15;1.95;;;21.70;65.40;;;;;;4994191;28;20193;-69
2022/06/12 07:16:33;;;;;;;2.53;1.90;;;21.70;65.40;;;;;;4994069;28;20184;-69
2022/06/12 07:18:59;;;;;;;2.05;1.52;;;21.70;65.40;;;;;;4993538;28;20217;-69
2022/06/12 07:21:25;;;;;;;2.88;1.90;;;21.70;65.60;;;;;;4993997;28;20181;-69
2022/06/12 07:23:51;;;;;;;1.83;1.63;;;21.70;65.40;;;;;;4993723;28;20193;-69
2022/06/12 07:26:25;;;;;;;2.28;1.75;;;21.70;65.10;;;;;;4978042;28;20200;-69
2022/06/12 07:28:52;;;;;;;1.77;1.67;;;21.80;65.60;;;;;;4992916;28;20209;-69
2022/06/12 07:31:19;;;;;;;3.10;2.05;;;21.70;65.50;;;;;;4993791;28;20185;-69
2022/06/12 07:33:45;;;;;;;2.35;2.10;;;21.70;65.30;;;;;;4993913;28;20220;-69
2022/06/12 07:36:14;;;;;;;2.13;1.70;;;21.80;65.40;;;;;;4994005;28;20184;-69
2022/06/12 07:38:41;;;;;;;2.70;1.90;;;21.70;65.50;;;;;;4993192;28;20209;-69
2022/06/12 07:41:11;;;;;;;3.88;2.30;;;21.80;65.60;;;;;;4993717;28;20208;-69
2022/06/12 07:43:38;;;;;;;2.45;2.00;;;21.80;65.60;;;;;;5010040;28;20189;-69
2022/06/12 07:46:09;;;;;;;3.38;2.00;;;21.80;65.50;;;;;;4993369;28;20184;-69
2022/06/12 07:48:36;;;;;;;3.67;1.73;;;21.80;65.60;;;;;;4992840;28;20213;-70
2022/06/12 07:51:07;;;;;;;2.35;1.75;;;21.80;65.60;;;;;;4993439;28;20315;-69
2022/06/12 07:53:35;;;;;;;2.72;1.92;;;21.80;65.60;;;;;;5010115;28;20230;-69
2022/06/12 07:56:02;;;;;;;2.55;1.90;;;21.80;65.60;;;;;;4977216;28;20180;-69
2022/06/12 07:58:28;;;;;;;3.55;1.85;;;21.80;65.60;;;;;;4994052;28;20215;-69
2022/06/12 08:00:58;;;;;;;2.45;1.77;;;21.80;65.40;;;;;;4995752;28;20181;-69
2022/06/12 08:03:27;;;;;;;2.40;1.80;;;21.80;65.40;;;;;;4993878;28;20212;-69
2022/06/12 08:05:54;;;;;;;2.00;1.90;;;21.80;65.40;;;;;;4992840;28;20181;-69
2022/06/12 08:08:19;;;;;;;2.42;1.73;;;21.90;65.60;;;;;;4976299;28;20243;-69
2022/06/12 08:10:46;;;;;;;1.65;1.55;;;21.90;65.50;;;;;;4976812;28;20255;-69
2022/06/12 08:13:13;;;;;;;2.17;1.83;;;21.90;65.50;;;;;;4992957;28;20177;-69
2022/06/12 08:15:45;;;;;;;2.10;1.90;;;21.90;65.50;;;;;;4993997;28;20181;-69
2022/06/12 08:18:13;;;;;;;2.65;2.08;;;21.90;65.80;;;;;;4992082;28;20219;-69
2022/06/12 08:20:46;;;;;;;3.40;1.73;;;21.90;65.70;;;;;;4995235;28;20176;-69
2022/06/12 08:23:29;;;;;;;2.28;1.80;;;21.90;65.50;;;;;;5012329;28;20172;-69
2022/06/12 08:26:08;;;;;;;2.08;1.88;;;21.90;65.40;;;;;;5006223;28;20191;-69
2022/06/12 08:29:00;;;;;;;3.53;1.95;;;21.90;65.50;;;;;;4992128;28;20204;-69
2022/06/12 08:31:39;;;;;;;1.80;1.70;;;21.90;65.60;;;;;;4993287;28;20200;-69
2022/06/12 08:34:11;;;;;;;1.77;1.67;;;21.90;65.60;;;;;;4994084;28;20196;-69
2022/06/12 08:36:39;;;;;;;1.95;1.75;;;21.90;66.00;;;;;;4992854;28;20651;-69
2022/06/12 08:39:07;;;;;;;2.17;2.00;;;21.90;66.00;;;;;;4991985;28;20197;-70
2022/06/12 08:42:00;;;;;;;2.97;1.90;;;21.90;65.70;;;;;;4992775;28;20235;-69
2022/06/12 08:44:31;;;;;;;2.00;1.83;;;22.00;65.70;;;;;;4992209;28;20224;-69
2022/06/12 08:47:09;;;;;;;2.88;2.10;;;22.00;65.60;;;;;;4991923;28;20280;-69
2022/06/12 08:49:54;;;;;;;3.08;1.92;;;22.00;65.60;;;;;;4992090;28;20214;-69
2022/06/12 08:52:35;;;;;;;2.28;1.92;;;22.10;66.50;;;;;;4992185;28;20189;-69
2022/06/12 08:55:12;;;;;;;2.83;1.70;;;22.00;65.50;;;;;;4975781;28;20239;-70
2022/06/12 08:57:58;;;;;;;3.90;2.05;;;22.00;65.60;;;;;;4991592;28;20199;-69
2022/06/12 09:00:30;;;;;;;2.22;1.85;;;22.00;65.50;;;;;;4993447;28;20227;-69
2022/06/12 09:02:56;;;;;;;2.13;1.85;;;22.10;65.70;;;;;;4992272;28;20179;-69
2022/06/12 09:05:51;;;;;;;2.22;2.00;;;22.10;65.70;;;;;;4992513;28;20216;-69
2022/06/12 09:08:43;;;;;;;2.30;2.03;;;22.10;65.70;;;;;;4972891;28;20235;-69
2022/06/12 09:11:33;;;;;;;1.70;1.60;;;22.10;65.60;;;;;;4976378;28;20184;-69
2022/06/12 09:14:56;;;;;;;2.63;2.00;;;22.10;65.50;;;;;;4991987;28;20186;-70
2022/06/12 09:17:29;;;;;;;3.25;2.00;;;22.10;65.60;;;;;;4988325;28;20215;-69
2022/06/12 09:20:34;;;;;;;2.35;1.98;;;22.10;65.70;;;;;;4993144;28;20200;-69
2022/06/12 09:23:44;;;;;;;1.90;1.73;;;22.10;65.70;;;;;;4969929;28;20210;-69
2022/06/12 09:26:33;;;;;;;2.00;1.80;;;22.10;65.80;;;;;;4993306;28;20224;-69
2022/06/12 09:29:34;;;;;;;1.75;1.65;;;22.10;65.90;;;;;;4992460;28;20208;-69
2022/06/12 09:32:15;;;;;;;2.13;2.03;;;22.10;65.80;;;;;;4993949;28;20188;-69
2022/06/12 09:35:16;;;;;;;1.80;1.70;;;22.10;65.90;;;;;;4995659;28;20211;-69
2022/06/12 09:38:20;;;;;;;2.08;1.70;;;22.10;65.80;;;;;;4978710;28;20550;-68
2022/06/12 09:41:01;;;;;;;2.13;1.92;;;22.10;66.00;;;;;;4979691;28;20184;-69
2022/06/12 09:44:05;;;;;;;2.33;1.65;;;22.10;65.80;;;;;;4995736;28;20311;-69
2022/06/12 09:47:24;;;;;;;2.40;1.90;;;22.10;66.00;;;;;;4994981;28;20201;-70
2022/06/12 09:50:07;;;;;;;1.88;1.75;;;22.10;66.00;;;;;;4955404;29;20230;-69
2022/06/12 09:52:49;;;;;;;2.45;2.00;;;22.10;66.00;;;;;;4939861;29;20185;-69
2022/06/12 09:55:51;;;;;;;1.67;1.50;;;22.10;66.10;;;;;;4961340;28;20196;-69
2022/06/12 09:58:26;;;;;;;2.33;1.92;;;22.10;66.20;;;;;;4985400;28;20641;-69
2022/06/12 10:01:17;;;;;;;1.50;1.40;;;22.10;66.10;;;;;;4995562;28;20173;-69
2022/06/12 10:03:59;;;;;;;1.73;1.40;;;22.10;66.20;;;;;;4995617;28;20331;-69
2022/06/12 10:06:38;;;;;;;1.98;1.83;;;22.20;66.20;;;;;;4996914;28;20219;-69
2022/06/12 10:09:13;;;;;;;2.00;1.67;;;22.10;66.10;;;;;;4995786;28;20283;-69
2022/06/12 10:11:48;;;;;;;2.17;2.00;;;22.10;66.00;;;;;;4978915;28;20664;-69
2022/06/12 10:14:46;;;;;;;2.20;2.00;;;22.20;66.10;;;;;;4995112;28;20212;-69
2022/06/12 10:17:32;;;;;;;2.28;2.00;;;22.20;66.10;;;;;;4976574;28;20665;-69
2022/06/12 10:20:16;;;;;;;2.00;1.77;;;22.20;66.20;;;;;;4996123;28;20200;-69
2022/06/12 10:22:49;;;;;;;1.80;1.70;;;22.20;66.10;;;;;;4996141;28;20169;-69
2022/06/12 10:25:33;;;;;;;1.80;1.70;;;22.20;66.10;;;;;;4978694;28;20189;-69
2022/06/12 10:28:20;;;;;;;1.80;1.70;;;22.10;66.10;;;;;;4994324;28;20209;-69
2022/06/12 10:31:10;;;;;;;2.15;1.58;;;22.20;66.20;;;;;;4994719;28;20205;-69
2022/06/12 10:33:41;;;;;;;1.80;1.70;;;22.20;66.20;;;;;;4994675;28;20189;-70
2022/06/12 10:36:27;;;;;;;1.95;1.65;;;22.20;66.20;;;;;;4995183;28;20279;-69
2022/06/12 10:39:17;;;;;;;1.92;1.80;;;22.20;66.20;;;;;;4978202;28;20205;-69
2022/06/12 10:42:03;;;;;;;2.35;1.63;;;22.20;66.20;;;;;;4994890;28;20185;-70
2022/06/12 10:44:52;;;;;;;2.75;1.92;;;22.20;66.20;;;;;;4977587;28;20204;-70
2022/06/12 10:47:41;;;;;;;2.10;1.70;;;22.20;66.30;;;;;;4994171;28;20234;-69
2022/06/12 10:50:19;;;;;;;2.35;1.50;;;22.20;66.30;;;;;;4978563;28;20244;-69
2022/06/12 10:52:58;;;;;;;2.35;1.73;;;22.20;66.20;;;;;;4994499;28;20184;-69
2022/06/12 10:55:50;;;;;;;1.55;1.45;;;22.20;66.30;;;;;;4994602;28;20193;-69
2022/06/12 10:58:53;;;;;;;1.92;1.55;;;22.20;66.40;;;;;;4993934;28;20209;-70
2022/06/12 11:02:07;;;;;;;1.90;1.80;;;22.20;66.30;;;;;;4995746;28;20235;-69
2022/06/12 11:04:56;;;;;;;2.00;1.52;;;22.20;66.40;;;;;;4994205;28;20185;-69
2022/06/12 11:07:52;;;;;;;2.10;1.70;;;22.20;66.30;;;;;;4993743;28;20199;-69
2022/06/12 11:10:58;;;;;;;2.17;1.80;;;22.30;66.40;;;;;;4994029;28;20216;-69
2022/06/12 11:13:42;;;;;;;2.47;1.80;;;22.20;66.50;;;;;;4994405;28;20224;-69
2022/06/12 11:16:24;;;;;;;2.00;1.80;;;22.20;66.40;;;;;;4977965;28;20280;-69
2022/06/12 11:19:39;;;;;;;1.98;1.88;;;22.30;66.60;;;;;;4977379;28;20208;-69
2022/06/12 11:22:23;;;;;;;2.35;2.00;;;22.20;66.30;;;;;;4986758;28;20188;-69
2022/06/12 11:25:13;;;;;;;2.10;1.90;;;22.20;66.40;;;;;;5014742;28;20287;-69
2022/06/12 11:28:05;;;;;;;1.80;1.70;;;22.20;66.40;;;;;;4996523;28;20188;-69
2022/06/12 11:31:06;;;;;;;2.00;1.75;;;22.20;66.50;;;;;;4997099;28;20270;-69
2022/06/12 11:33:56;;;;;;;13.55;2.20;;;22.20;66.50;;;;;;5013187;28;20188;-69
2022/06/12 11:36:42;;;;;;;1.90;1.70;;;22.20;66.50;;;;;;5013013;28;20203;-69
2022/06/12 11:39:38;;;;;;;1.80;1.70;;;22.30;66.70;;;;;;5012737;28;20216;-69
2022/06/12 11:43:11;;;;;;;1.95;1.55;;;22.30;66.80;;;;;;5013527;28;20211;-69
2022/06/12 11:46:16;;;;;;;1.98;1.77;;;22.20;66.60;;;;;;5012360;28;20203;-69
2022/06/12 11:49:26;;;;;;;2.10;1.90;;;22.30;66.70;;;;;;4996010;28;20212;-69
2022/06/12 11:52:12;;;;;;;1.80;1.70;;;22.30;66.50;;;;;;5013103;28;20314;-69
2022/06/12 11:55:09;;;;;;;1.92;1.83;;;22.30;66.40;;;;;;4996405;28;20230;-69
2022/06/12 11:58:24;;;;;;;2.50;2.00;;;22.30;66.50;;;;;;4995625;28;20180;-69
2022/06/12 12:01:11;;;;;;;2.58;1.90;;;22.30;66.60;;;;;;5007677;28;20199;-69
2022/06/12 12:04:16;;;;;;;2.13;1.90;;;22.30;66.40;;;;;;5013383;28;20279;-69
2022/06/12 12:07:17;;;;;;;2.08;1.98;;;22.30;66.40;;;;;;4995965;28;20183;-69
2022/06/12 12:10:05;;;;;;;2.22;2.03;;;22.30;66.60;;;;;;5012519;28;20223;-69
2022/06/12 12:12:38;;;;;;;1.65;1.55;;;22.30;66.50;;;;;;4996250;28;20183;-69
2022/06/12 12:15:15;;;;;;;1.92;1.77;;;22.30;66.40;;;;;;5012474;28;20202;-69
2022/06/12 12:17:45;;;;;;;2.25;1.80;;;22.30;66.40;;;;;;5011814;28;20191;-70
2022/06/12 12:20:31;;;;;;;1.80;1.70;;;22.30;66.40;;;;;;5029038;28;20652;-69
2022/06/12 12:23:10;;;;;;;1.60;1.48;;;22.30;66.60;;;;;;5025637;28;20189;-70
2022/06/12 12:25:38;;;;;;;1.98;1.80;;;22.30;66.60;;;;;;4966264;28;20180;-69
2022/06/12 12:28:19;;;;;;;2.30;1.73;;;22.30;66.90;;;;;;4992190;28;20239;-69
2022/06/12 12:30:45;;;;;;;1.83;1.70;;;22.30;66.70;;;;;;4976374;28;20208;-69
2022/06/12 12:33:18;;;;;;;1.95;1.75;;;22.30;66.80;;;;;;4992601;28;20193;-69
2022/06/12 12:41:38;;;;;;;1.92;1.60;;;22.30;66.70;;;;;;4992291;28;20177;-70
2022/06/12 12:44:03;;;;;;;1.70;1.60;;;22.30;67.00;;;;;;4992632;28;20219;-69
2022/06/12 12:46:52;;;;;;;2.33;1.83;;;22.30;66.90;;;;;;4992399;28;20604;-69
2022/06/12 12:49:36;;;;;;;2.00;1.80;;;22.30;67.00;;;;;;4991867;28;20216;-69
2022/06/12 12:52:16;;;;;;;1.70;1.60;;;22.30;66.80;;;;;;4992617;28;20304;-70
2022/06/12 12:55:04;;;;;;;2.00;1.85;;;22.30;66.90;;;;;;4974689;28;20682;-69
2022/06/12 12:57:52;;;;;;;1.85;1.75;;;22.30;66.80;;;;;;4975457;28;20173;-69
2022/06/12 13:00:17;;;;;;;1.90;1.80;;;22.40;66.90;;;;;;4992016;28;20231;-69
2022/06/12 13:02:56;;;;;;;1.83;1.67;;;22.40;67.00;;;;;;4992438;28;20220;-69
2022/06/12 13:05:43;;;;;;;1.60;1.50;;;22.30;66.90;;;;;;4991900;28;20201;-69
2022/06/12 13:08:50;;;;;;;1.70;1.60;;;22.40;67.10;;;;;;4991428;28;20217;-69
2022/06/12 13:11:37;;;;;;;1.80;1.70;;;22.40;67.00;;;;;;4976246;28;20231;-69
2022/06/12 13:14:25;;;;;;;2.00;1.90;;;22.40;67.10;;;;;;4993220;28;20169;-69
2022/06/12 13:16:54;;;;;;;2.10;1.90;;;22.40;67.30;;;;;;4976008;28;20641;-69
2022/06/12 13:19:46;;;;;;;1.65;1.55;;;22.40;67.00;;;;;;4993103;28;20223;-69
2022/06/12 13:23:02;;;;;;;1.92;1.77;;;22.40;67.00;;;;;;4975704;28;20251;-69
2022/06/12 13:25:40;;;;;;;1.63;1.52;;;22.30;67.00;;;;;;4991888;28;20172;-69
2022/06/12 13:28:30;;;;;;;1.80;1.70;;;22.40;67.20;;;;;;4991428;28;20208;-69
2022/06/12 13:30:57;;;;;;;1.80;1.70;;;22.40;67.10;;;;;;4991985;28;20209;-69
2022/06/12 13:33:28;;;;;;;1.80;1.70;;;22.40;67.00;;;;;;4991686;28;20254;-69
2022/06/12 13:35:58;;;;;;;1.98;1.85;;;22.40;67.00;;;;;;4991943;28;20181;-69
2022/06/12 13:38:29;;;;;;;1.88;1.77;;;22.40;67.00;;;;;;4991106;28;20204;-69
2022/06/12 13:41:00;;;;;;;1.70;1.60;;;22.40;66.90;;;;;;4991796;28;20248;-69
2022/06/12 13:43:41;;;;;;;2.55;1.80;;;22.40;66.90;;;;;;4975885;28;20188;-69
2022/06/12 13:46:33;;;;;;;1.98;1.88;;;22.40;66.70;;;;;;4991781;28;20177;-69
2022/06/12 13:49:00;;;;;;;1.70;1.60;;;22.40;66.80;;;;;;4990991;28;20220;-69
2022/06/12 13:51:42;;;;;;;1.67;1.58;;;22.40;66.90;;;;;;4975222;28;20192;-69
2022/06/12 13:54:15;;;;;;;1.95;1.85;;;22.40;67.00;;;;;;4991916;28;20173;-69
2022/06/12 13:56:51;;;;;;;1.70;1.60;;;22.40;67.00;;;;;;4975390;28;20246;-69
2022/06/12 13:59:21;;;;;;;2.55;1.75;;;22.40;66.90;;;;;;4990978;28;20200;-69
2022/06/12 14:01:48;;;;;;;1.85;1.75;;;22.40;67.00;;;;;;4975785;28;20189;-69
2022/06/12 14:04:26;;;;;;;2.08;1.65;;;22.40;66.80;;;;;;4975733;28;20186;-69
2022/06/12 14:06:58;;;;;;;2.13;1.92;;;22.40;66.80;;;;;;4991401;28;20326;-69
2022/06/12 14:09:32;;;;;;;1.60;1.48;;;22.40;66.90;;;;;;4990837;28;20692;-69